Plainfield, Wisconsin
Current Conditions -  °F | °C
As of 6:56 PM on Tuesday 27 Jan 2015 (Local Time) from KY50 Reporting Station
Overcast Overcast  
Wind Chill: 25°   Ceiling: 2300
Heat Index: 25°   Visibility: 10mi
Dew Point: 21°   Wind: 0mph
Humidity: 84%   Direction: NA
Pressure: 30.23"   Gusts: NA
Location:  44.21°N, 89.49°W
Report Text: KY50 280056Z AUTO 00000KT 10SM OVC023 M04/M06 A3023 RMK AO2 TSNO T10381061 SLP245
Loading
Personal Weather Stations






























Interactive Weather Map New forecast layout! Learn more

10-Day Weather Forecast

Advertisements
Track Severe Weather on mobile